Time;durP1;ratioP1;P1;durP2;ratioP2;P2;SDS_P1;SDS_P2;PMS_P1;PMS_P2;Temp;Humidity;BMP_temperature;BMP_pressure;BME280_temperature;BME280_humidity;BME280_pressure;Samples;Min_cycle;Max_cycle;Signal;HPM_P1;HPM_P2
2022/11/29 00:00:59;;;;;;;6.90;3.57;;;;;;;9.13;nan;102256.78;6189728;23;20434;-93
2022/11/29 00:07:33;;;;;;;14.03;4.23;;;;;;;9.09;nan;102255.34;6188239;23;20376;-92
2022/11/29 00:10:01;;;;;;;13.07;4.30;;;;;;;9.03;nan;102250.50;6162265;23;20408;-92
2022/11/29 00:16:30;;;;;;;10.13;4.80;;;;;;;8.95;nan;102254.81;6187245;23;20894;-91
2022/11/29 00:19:11;;;;;;;9.57;4.30;;;;;;;8.90;nan;102251.66;6162276;23;20403;-91
2022/11/29 00:22:01;;;;;;;10.20;4.80;;;;;;;8.85;nan;102237.59;6137348;23;20986;-91
2022/11/29 00:24:32;;;;;;;10.80;4.90;;;;;;;8.81;nan;102247.09;6108468;23;20947;-90
2022/11/29 00:27:15;;;;;;;12.10;3.87;;;;;;;8.75;nan;102231.31;6084669;23;20477;-92
2022/11/29 00:29:49;;;;;;;10.07;3.83;;;;;;;8.74;nan;102228.72;6084750;23;20478;-92
2022/11/29 00:36:07;;;;;;;8.97;3.40;;;;;;;8.73;nan;102236.03;6157271;23;20487;-92
2022/11/29 00:42:25;;;;;;;6.73;2.13;;;;;;;8.61;nan;102224.44;6158431;23;20483;-93
2022/11/29 00:45:13;;;;;;;6.13;2.70;;;;;;;8.57;nan;102216.72;6085760;23;20928;-92
2022/11/29 00:51:38;;;;;;;10.63;3.83;;;;;;;8.49;nan;102208.38;6157817;23;20464;-92
2022/11/29 00:54:32;;;;;;;9.00;4.20;;;;;;;8.47;nan;102213.09;6132017;23;20722;-92
2022/11/29 00:57:24;;;;;;;9.93;4.40;;;;;;;8.46;nan;102211.41;6132356;23;20481;-92
2022/11/29 01:00:33;;;;;;;13.47;4.73;;;;;;;8.43;nan;102203.53;6131911;23;20424;-92
2022/11/29 01:03:19;;;;;;;16.57;5.43;;;;;;;8.40;nan;102209.25;6132411;23;20512;-92
2022/11/29 01:06:11;;;;;;;7.13;4.13;;;;;;;8.41;nan;102195.50;6084752;23;20762;-92
2022/11/29 01:12:19;;;;;;;12.33;3.83;;;;;;;8.36;nan;102188.75;6157352;23;20419;-92
2022/11/29 01:18:29;;;;;;;9.50;4.30;;;;;;;8.23;nan;102175.41;6157700;23;20432;-92
2022/11/29 01:21:25;;;;;;;8.47;3.67;;;;;;;8.27;nan;102183.13;6021140;23;20428;-92
2022/11/29 01:23:53;;;;;;;10.33;3.43;;;;;;;8.22;nan;102169.09;6065516;23;20759;-92
2022/11/29 01:26:28;;;;;;;8.20;3.80;;;;;;;8.19;nan;102169.38;6049311;23;20417;-92
2022/11/29 01:28:57;;;;;;;8.30;3.77;;;;;;;8.02;nan;102145.59;6072751;23;20410;-92
2022/11/29 01:31:39;;;;;;;16.10;3.97;;;;;;;8.15;nan;102167.94;6049000;23;20441;-92
2022/11/29 01:34:34;;;;;;;9.87;4.13;;;;;;;8.19;nan;102163.94;6072201;23;20419;-93
2022/11/29 01:44:25;;;;;;;12.80;3.27;;;;;;;8.19;nan;102153.03;6038894;23;20417;-93
2022/11/29 01:47:09;;;;;;;8.60;2.50;;;;;;;8.06;nan;102152.47;6038725;23;20412;-92
2022/11/29 01:53:16;;;;;;;8.07;2.77;;;;;;;8.04;nan;102154.47;6039088;23;20484;-92
2022/11/29 01:55:47;;;;;;;8.30;2.53;;;;;;;8.00;nan;102153.03;6015655;23;20796;-92
2022/11/29 01:58:57;;;;;;;9.13;3.10;;;;;;;8.05;nan;102156.19;6015791;23;20495;-92
2022/11/29 02:05:07;;;;;;;5.20;1.90;;;;;;;7.97;nan;102126.94;6187204;23;20386;-93
2022/11/29 02:08:02;;;;;;;7.60;1.40;;;;;;;8.18;nan;102145.00;6137218;23;20415;-92
2022/11/29 02:14:05;;;;;;;11.07;1.80;;;;;;;8.48;nan;102146.72;6187214;23;20385;-93
2022/11/29 02:17:06;;;;;;;7.00;1.67;;;;;;;8.63;nan;102150.72;6161062;23;20393;-93
2022/11/29 02:20:05;;;;;;;12.03;1.90;;;;;;;8.74;nan;102145.09;6088610;23;20426;-92
2022/11/29 02:26:45;;;;;;;9.17;1.80;;;;;;;8.95;nan;102134.84;6157561;23;20398;-92
2022/11/29 02:29:30;;;;;;;5.70;1.37;;;;;;;8.95;nan;102136.72;6130706;23;20424;-92
2022/11/29 02:32:47;;;;;;;13.83;1.77;;;;;;;9.04;nan;102148.59;6109620;23;20484;-93
2022/11/29 02:39:37;;;;;;;3.13;1.50;;;;;;;8.96;nan;102146.63;6156971;23;20487;-93
2022/11/29 02:46:02;;;;;;;7.10;1.87;;;;;;;8.80;nan;102141.78;6157398;23;20436;-92
2022/11/29 02:56:17;;;;;;;6.37;1.93;;;;;;;8.93;nan;102136.00;6157224;23;20394;-93
2022/11/29 03:02:59;;;;;;;8.07;1.20;;;;;;;8.95;nan;102142.16;6156991;23;20431;-92
2022/11/29 03:06:03;;;;;;;8.00;1.73;;;;;;;8.94;nan;102140.44;6107253;23;20408;-92
2022/11/29 03:12:30;;;;;;;8.33;1.60;;;;;;;8.94;nan;102137.72;6157006;23;20767;-92
2022/11/29 03:15:37;;;;;;;10.93;1.83;;;;;;;8.96;nan;102131.13;6108999;23;20412;-92
2022/11/29 03:18:54;;;;;;;7.57;1.93;;;;;;;8.96;nan;102138.44;6107270;23;20480;-92
2022/11/29 03:21:53;;;;;;;6.60;1.20;;;;;;;8.94;nan;102138.56;6130651;23;20417;-93
2022/11/29 03:24:25;;;;;;;11.63;1.63;;;;;;;8.90;nan;102131.69;6140606;23;20515;-93
2022/11/29 03:34:29;;;;;;;8.50;1.50;;;;;;;8.92;nan;102150.63;6186426;23;20438;-92
2022/11/29 03:37:23;;;;;;;12.67;2.00;;;;;;;8.90;nan;102144.47;6160327;23;20490;-92
2022/11/29 03:44:01;;;;;;;8.53;1.77;;;;;;;8.80;nan;102144.50;6188261;23;20427;-92
2022/11/29 03:50:20;;;;;;;8.90;1.77;;;;;;;8.70;nan;102145.53;6188475;23;20454;-93
2022/11/29 03:52:55;;;;;;;6.90;1.80;;;;;;;8.60;nan;102142.84;6114111;23;20422;-92
2022/11/29 03:59:28;;;;;;;6.30;1.30;;;;;;;8.45;nan;102134.28;6188309;23;20379;-92
2022/11/29 04:02:16;;;;;;;8.67;2.00;;;;;;;8.47;nan;102145.00;6137440;23;20423;-92
2022/11/29 04:11:53;;;;;;;8.80;1.53;;;;;;;8.49;nan;102151.16;6187741;23;20963;-92
2022/11/29 04:14:30;;;;;;;8.47;2.00;;;;;;;8.47;nan;102139.56;6161805;23;20431;-92
2022/11/29 04:17:41;;;;;;;9.57;1.70;;;;;;;8.44;nan;102146.19;6137484;23;20450;-92
2022/11/29 04:20:48;;;;;;;7.47;1.23;;;;;;;8.32;nan;102142.72;6162817;23;20392;-92
2022/11/29 04:23:53;;;;;;;9.43;1.57;;;;;;;8.27;nan;102136.00;6162166;23;20428;-92
2022/11/29 04:30:05;;;;;;;14.17;2.40;;;;;;;8.16;nan;102126.09;6157412;23;20401;-91
2022/11/29 04:36:12;;;;;;;6.47;1.47;;;;;;;8.10;nan;102121.22;6157788;23;20754;-92
2022/11/29 04:50:24;;;;;;;6.60;1.83;;;;;;;8.10;nan;102110.31;6158179;23;20420;-91
2022/11/29 04:56:36;;;;;;;8.80;1.80;;;;;;;8.08;nan;102117.75;6158047;23;20771;-91
2022/11/29 04:59:22;;;;;;;5.27;1.40;;;;;;;8.04;nan;102105.47;6131653;23;20428;-92
2022/11/29 05:08:22;;;;;;;5.10;1.20;;;;;;;8.07;nan;102104.31;6157490;23;20416;-92
2022/11/29 05:11:03;;;;;;;6.47;1.73;;;;;;;8.03;nan;102097.44;6108735;23;20514;-92
2022/11/29 05:20:48;;;;;;;3.70;1.43;;;;;;;7.85;nan;102117.22;6157786;23;20432;-92
2022/11/29 05:31:40;;;;;;;11.10;4.90;;;;;;;7.70;nan;102118.59;6157804;23;20702;-92
2022/11/29 05:35:05;;;;;;;9.93;3.03;;;;;;;7.66;nan;102110.91;6133003;23;20475;-93
2022/11/29 05:37:48;;;;;;;9.23;2.80;;;;;;;7.62;nan;102113.03;6157686;23;20394;-92
2022/11/29 05:40:29;;;;;;;6.97;3.53;;;;;;;7.58;nan;102114.31;6086234;23;20777;-92
2022/11/29 05:46:21;;;;;;;3.90;2.03;;;;;;;7.34;nan;102084.75;6156830;23;20412;-92
2022/11/29 05:49:28;;;;;;;4.57;1.50;;;;;;;7.42;nan;102098.53;6134263;23;20397;-92
2022/11/29 05:55:52;;;;;;;4.40;2.43;;;;;;;7.37;nan;102116.25;6156851;23;20893;-92
2022/11/29 05:58:45;;;;;;;8.03;2.10;;;;;;;7.33;nan;102120.25;6131797;23;20392;-92
2022/11/29 06:01:48;;;;;;;5.83;2.47;;;;;;;7.27;nan;102116.25;6131157;23;20424;-91
2022/11/29 06:11:55;;;;;;;4.87;1.80;;;;;;;7.17;nan;102127.09;6157565;23;20393;-92
2022/11/29 06:14:59;;;;;;;9.30;1.87;;;;;;;7.13;nan;102122.91;6131596;23;20726;-91
2022/11/29 06:21:38;;;;;;;3.33;1.80;;;;;;;7.00;nan;102119.59;6157199;23;20424;-91
2022/11/29 06:24:24;;;;;;;6.67;2.10;;;;;;;6.99;nan;102117.88;6131513;23;20452;-91
2022/11/29 06:27:18;;;;;;;5.17;1.30;;;;;;;6.96;nan;102122.69;6160727;23;20408;-92
2022/11/29 06:33:37;;;;;;;7.80;2.50;;;;;;;6.94;nan;102122.84;6186840;23;20476;-92
2022/11/29 06:42:54;;;;;;;17.73;1.80;;;;;;;6.96;nan;102139.00;6187001;23;20482;-91
2022/11/29 06:45:22;;;;;;;13.77;1.83;;;;;;;6.87;nan;102130.69;6112320;23;20424;-93
2022/11/29 06:48:03;;;;;;;11.07;1.53;;;;;;;6.78;nan;102123.34;6112459;23;20403;-92
2022/11/29 06:53:51;;;;;;;9.77;2.00;;;;;;;6.90;nan;102141.31;6185941;23;20419;-92
2022/11/29 07:00:48;;;;;;;12.03;1.77;;;;;;;6.88;nan;102143.28;6187049;23;20367;-92
2022/11/29 07:03:58;;;;;;;4.90;1.40;;;;;;;6.82;nan;102132.94;6136427;23;20455;-91
2022/11/29 07:09:58;;;;;;;4.93;1.90;;;;;;;6.67;nan;102142.47;6186624;23;20399;-91
2022/11/29 07:16:32;;;;;;;11.23;1.70;;;;;;;6.62;nan;102150.13;6188307;23;20443;-91
2022/11/29 07:22:48;;;;;;;9.23;3.60;;;;;;;6.60;nan;102143.97;6188028;23;20411;-91
2022/11/29 07:25:21;;;;;;;5.33;2.53;;;;;;;6.59;nan;102137.69;6137966;23;20447;-91
2022/11/29 07:28:13;;;;;;;7.03;2.73;;;;;;;6.58;nan;102135.09;6162856;23;20499;-91
2022/11/29 07:31:05;;;;;;;8.97;2.90;;;;;;;6.53;nan;102140.09;6137670;23;20408;-91
2022/11/29 07:41:19;;;;;;;7.70;2.17;;;;;;;6.58;nan;102146.81;6188363;23;20368;-91
2022/11/29 07:44:38;;;;;;;7.00;2.43;;;;;;;6.61;nan;102150.25;6162577;23;20534;-91
2022/11/29 07:47:18;;;;;;;7.53;2.83;;;;;;;6.58;nan;102145.97;6162527;23;20480;-91
2022/11/29 07:50:01;;;;;;;7.50;1.93;;;;;;;6.54;nan;102145.34;6138786;23;20418;-91
2022/11/29 07:52:58;;;;;;;6.97;2.57;;;;;;;6.57;nan;102133.38;6114315;23;20471;-90
2022/11/29 07:55:32;;;;;;;9.10;2.03;;;;;;;6.60;nan;102157.56;6137562;23;20955;-90
2022/11/29 07:58:30;;;;;;;10.20;2.00;;;;;;;6.65;nan;102147.16;6113843;23;20420;-93
2022/11/29 08:01:38;;;;;;;6.63;1.90;;;;;;;6.72;nan;102142.91;6161764;23;20716;-93
2022/11/29 08:04:07;;;;;;;12.43;2.87;;;;;;;6.84;nan;102146.41;6162409;23;20431;-90
2022/11/29 08:06:35;;;;;;;47.90;10.03;;;;;;;6.91;nan;102148.47;6114102;23;20458;-89
2022/11/29 08:09:12;;;;;;;31.30;8.63;;;;;;;6.94;nan;102141.84;6114209;23;20468;-91
2022/11/29 08:15:21;;;;;;;25.83;5.00;;;;;;;7.04;nan;102152.78;6188177;23;20422;-92
2022/11/29 08:18:23;;;;;;;15.60;3.33;;;;;;;7.09;nan;102147.81;6113828;23;20523;-90
2022/11/29 08:20:50;;;;;;;12.90;3.10;;;;;;;7.15;nan;102141.81;6137311;23;20479;-89
2022/11/29 08:23:21;;;;;;;25.87;3.00;;;;;;;7.28;nan;102142.44;6112551;23;20492;-90
2022/11/29 08:29:54;;;;;;;17.93;7.07;;;;;;;7.49;nan;102139.66;6188409;23;20708;-91
2022/11/29 08:32:41;;;;;;;24.17;7.80;;;;;;;7.66;nan;102136.25;6114157;23;20412;-94
2022/11/29 08:39:09;;;;;;;25.53;5.97;;;;;;;7.79;nan;102133.25;6196696;23;20934;-96
2022/11/29 08:45:55;;;;;;;15.07;6.10;;;;;;;8.13;nan;102141.84;6191087;23;20376;-96
2022/11/29 09:06:39;;;;;;;10.50;4.70;;;;;;;9.27;nan;102155.38;6187338;23;20460;-92
2022/11/29 09:12:43;;;;;;;16.97;5.90;;;;;;;9.62;nan;102147.28;6187727;23;20419;-94
2022/11/29 09:15:47;;;;;;;17.13;4.10;;;;;;;9.88;nan;102150.13;6112886;23;20415;-94
2022/11/29 09:18:29;;;;;;;10.07;2.63;;;;;;;10.08;nan;102139.91;6138763;23;20483;-92
2022/11/29 09:21:31;;;;;;;8.07;1.77;;;;;;;10.41;nan;102140.22;6112826;23;20415;-93
2022/11/29 09:24:06;;;;;;;9.07;1.90;;;;;;;10.58;nan;102131.16;6137018;23;20493;-94
2022/11/29 09:30:40;;;;;;;6.53;1.80;;;;;;;11.16;nan;102130.47;6187472;23;20364;-93
2022/11/29 09:33:08;;;;;;;9.03;1.80;;;;;;;11.30;nan;102117.03;6112979;23;20420;-93
2022/11/29 09:39:23;;;;;;;6.83;1.77;;;;;;;11.68;nan;102121.09;6187894;23;20363;-92
2022/11/29 09:42:16;;;;;;;9.53;2.10;;;;;;;11.88;nan;102131.78;6113014;23;20416;-92
2022/11/29 09:44:58;;;;;;;9.40;2.33;;;;;;;11.99;nan;102125.97;6137363;23;20535;-92
2022/11/29 09:48:01;;;;;;;7.33;1.83;;;;;;;12.15;nan;102125.97;6137973;23;20423;-92
2022/11/29 09:50:36;;;;;;;8.23;2.37;;;;;;;12.17;nan;102110.22;6161732;23;20518;-92
2022/11/29 09:53:29;;;;;;;8.30;1.67;;;;;;;12.33;nan;102120.31;6112668;23;20745;-92
2022/11/29 09:56:28;;;;;;;16.00;1.80;;;;;;;12.51;nan;102134.69;6140389;23;20415;-92
2022/11/29 09:59:04;;;;;;;8.50;2.53;;;;;;;12.52;nan;102119.97;6137947;23;20408;-92
2022/11/29 10:01:37;;;;;;;9.40;2.23;;;;;;;12.65;nan;102130.44;6113405;23;20491;-92
2022/11/29 10:04:10;;;;;;;9.00;2.20;;;;;;;12.73;nan;102122.16;6137258;23;20439;-92
2022/11/29 10:06:45;;;;;;;5.63;1.77;;;;;;;12.81;nan;102119.41;6138717;23;21050;-92
2022/11/29 10:12:55;;;;;;;6.67;1.83;;;;;;;13.16;nan;102133.75;6187481;23;20427;-93
2022/11/29 10:15:26;;;;;;;5.03;2.87;;;;;;;13.20;nan;102119.50;6112404;23;20419;-94
2022/11/29 10:17:57;;;;;;;18.07;5.03;;;;;;;13.38;nan;102113.78;6113001;23;20479;-94
2022/11/29 10:20:35;;;;;;;18.93;4.70;;;;;;;13.53;nan;102125.72;6137065;23;20416;-94
2022/11/29 10:23:26;;;;;;;8.10;3.27;;;;;;;13.62;nan;102116.41;6117313;23;20400;-94
2022/11/29 10:25:55;;;;;;;20.23;6.30;;;;;;;13.68;nan;102110.16;6115053;23;20582;-94
2022/11/29 10:28:30;;;;;;;27.27;6.40;;;;;;;13.80;nan;102122.47;6112650;23;20408;-93
2022/11/29 10:31:24;;;;;;;13.70;3.40;;;;;;;13.81;nan;102101.34;6112337;23;20470;-94
2022/11/29 10:33:55;;;;;;;9.63;2.73;;;;;;;13.96;nan;102116.00;6164940;23;20730;-94
2022/11/29 10:36:50;;;;;;;5.13;1.80;;;;;;;14.05;nan;102108.53;6111834;23;20416;-94
2022/11/29 10:39:41;;;;;;;5.87;2.80;;;;;;;14.16;nan;102110.88;6148122;23;20415;-94
2022/11/29 10:42:48;;;;;;;10.20;2.50;;;;;;;14.14;nan;102090.97;6113755;23;20512;-93
2022/11/29 10:45:37;;;;;;;10.00;2.67;;;;;;;14.36;nan;102103.84;6143773;23;20451;-94
2022/11/29 10:48:10;;;;;;;12.63;4.00;;;;;;;14.43;nan;102102.06;6138384;23;20419;-94
2022/11/29 10:50:42;;;;;;;7.80;2.70;;;;;;;14.49;nan;102094.97;6112620;23;20722;-94
2022/11/29 10:53:12;;;;;;;5.97;2.00;;;;;;;14.60;nan;102099.19;6137046;23;20416;-94
2022/11/29 10:55:50;;;;;;;13.30;2.57;;;;;;;14.67;nan;102097.38;6112363;23;20412;-94
2022/11/29 10:58:25;;;;;;;6.50;2.00;;;;;;;14.79;nan;102101.41;6137439;23;20416;-93
2022/11/29 11:00:59;;;;;;;6.43;2.10;;;;;;;14.96;nan;102108.44;6114437;23;20416;-94
2022/11/29 11:07:21;;;;;;;8.93;2.47;;;;;;;15.16;nan;102083.94;6186227;23;20376;-92
2022/11/29 11:09:52;;;;;;;8.47;2.60;;;;;;;15.36;nan;102097.97;6114852;23;20404;-93
2022/11/29 11:12:21;;;;;;;11.20;2.53;;;;;;;15.40;nan;102082.72;6112448;23;20478;-93
2022/11/29 11:14:50;;;;;;;11.33;2.30;;;;;;;15.38;nan;102074.69;6113108;23;20418;-93
2022/11/29 11:17:25;;;;;;;8.60;2.43;;;;;;;15.58;nan;102091.50;6113207;23;20751;-93
2022/11/29 11:20:07;;;;;;;7.10;2.03;;;;;;;15.61;nan;102063.53;6136898;23;20411;-93
2022/11/29 11:22:38;;;;;;;8.13;2.97;;;;;;;15.69;nan;102055.16;6138241;23;20415;-93
2022/11/29 11:25:23;;;;;;;12.87;2.50;;;;;;;15.85;nan;102065.91;6112598;23;20451;-93
2022/11/29 11:27:51;;;;;;;9.30;2.43;;;;;;;15.97;nan;102057.13;6114545;23;20416;-93
2022/11/29 11:30:23;;;;;;;8.57;1.80;;;;;;;16.01;nan;102044.63;6110727;23;20423;-93
2022/11/29 11:33:20;;;;;;;8.73;3.00;;;;;;;16.23;nan;102046.34;6111622;23;20558;-93
2022/11/29 11:36:09;;;;;;;7.53;2.40;;;;;;;16.36;nan;102035.38;6135522;23;20428;-93
2022/11/29 11:38:40;;;;;;;3.97;1.80;;;;;;;16.46;nan;102022.09;6111550;23;20412;-93
2022/11/29 11:44:38;;;;;;;6.97;1.70;;;;;;;16.63;nan;102019.03;6144846;23;20493;-93
2022/11/29 11:47:18;;;;;;;6.63;1.63;;;;;;;16.71;nan;102022.53;6141115;23;20416;-93
2022/11/29 11:50:16;;;;;;;9.67;2.10;;;;;;;16.74;nan;102015.75;6111770;23;20539;-93
2022/11/29 11:52:56;;;;;;;5.20;1.50;;;;;;;16.67;nan;102004.66;6134441;23;20479;-92
2022/11/29 11:55:59;;;;;;;4.53;1.10;;;;;;;16.72;nan;101987.50;6111388;23;20415;-93
2022/11/29 11:58:49;;;;;;;6.23;1.20;;;;;;;16.81;nan;101986.25;6136072;23;20755;-93
2022/11/29 12:01:37;;;;;;;5.87;1.40;;;;;;;16.92;nan;101985.69;6160369;23;20721;-93
2022/11/29 12:04:16;;;;;;;4.20;0.80;;;;;;;16.92;nan;101967.22;6114244;23;20443;-93
2022/11/29 12:06:51;;;;;;;7.17;1.70;;;;;;;17.15;nan;101985.34;6114954;23;20412;-93
2022/11/29 12:09:38;;;;;;;9.80;2.00;;;;;;;17.20;nan;101969.84;6136779;23;20753;-93
2022/11/29 12:12:14;;;;;;;6.63;1.80;;;;;;;17.33;nan;101971.78;6112752;23;20411;-93
2022/11/29 12:15:03;;;;;;;8.33;1.70;;;;;;;17.40;nan;101961.63;6113879;23;20426;-93
2022/11/29 12:17:54;;;;;;;6.63;1.50;;;;;;;17.53;nan;101961.63;6160878;23;20415;-93
2022/11/29 12:20:41;;;;;;;6.30;2.03;;;;;;;17.68;nan;101950.44;6186537;23;20420;-93
2022/11/29 12:23:12;;;;;;;5.37;1.20;;;;;;;17.76;nan;101944.69;6161126;23;20468;-93
2022/11/29 12:25:49;;;;;;;5.10;1.90;;;;;;;17.72;nan;101940.63;6051206;23;2599435;-93
2022/11/29 12:28:18;;;;;;;3.37;1.20;;;;;;;17.77;nan;101918.72;6162295;23;20184;-93
2022/11/29 12:31:17;;;;;;;6.13;0.83;;;;;;;17.89;nan;101919.81;6115514;23;20411;-93
2022/11/29 12:34:22;;;;;;;8.83;1.53;;;;;;;17.96;nan;101914.25;6163155;23;20722;-93
2022/11/29 12:37:22;;;;;;;4.30;1.20;;;;;;;18.02;nan;101909.78;6162014;23;20427;-93
2022/11/29 12:39:57;;;;;;;7.87;1.20;;;;;;;18.10;nan;101901.25;6157571;23;20470;-93
2022/11/29 12:42:39;;;;;;;2.60;1.03;;;;;;;18.27;nan;101896.97;6139532;23;20414;-93
2022/11/29 12:45:22;;;;;;;2.90;1.23;;;;;;;18.36;nan;101895.66;6163302;23;20435;-93
2022/11/29 12:48:13;;;;;;;5.70;1.57;;;;;;;18.30;nan;101877.16;6161893;23;20416;-92
2022/11/29 12:51:09;;;;;;;5.50;1.10;;;;;;;18.52;nan;101894.34;6140735;23;20466;-94
2022/11/29 12:53:44;;;;;;;10.00;1.57;;;;;;;18.53;nan;101883.03;6140792;23;20404;-93
2022/11/29 12:56:44;;;;;;;4.20;1.20;;;;;;;18.48;nan;101866.22;6138332;23;20856;-93
2022/11/29 12:59:34;;;;;;;4.63;1.10;;;;;;;18.61;nan;101863.47;6142709;23;20480;-93
2022/11/29 13:02:23;;;;;;;3.03;1.00;;;;;;;18.60;nan;101866.44;6137806;23;20432;-93
2022/11/29 13:05:16;;;;;;;6.03;1.60;;;;;;;18.69;nan;101858.72;6138353;23;20452;-94
2022/11/29 13:08:07;;;;;;;2.87;1.20;;;;;;;18.83;nan;101849.31;6116262;23;20474;-93
2022/11/29 13:10:52;;;;;;;5.70;1.17;;;;;;;18.92;nan;101847.94;6138578;23;20487;-93
2022/11/29 13:13:36;;;;;;;3.20;1.20;;;;;;;19.05;nan;101850.63;6115900;23;20411;-93
2022/11/29 13:17:03;;;;;;;7.20;1.17;;;;;;;19.08;nan;101838.25;6139125;23;20729;-92
2022/11/29 13:19:38;;;;;;;5.60;1.27;;;;;;;19.30;nan;101859.00;6138505;23;20482;-93
2022/11/29 13:22:17;;;;;;;5.17;1.20;;;;;;;19.31;nan;101855.16;6162406;23;20412;-93
2022/11/29 13:24:50;;;;;;;4.20;1.33;;;;;;;19.28;nan;101845.34;6161303;23;20440;-93
2022/11/29 13:27:33;;;;;;;13.30;3.20;;;;;;;19.24;nan;101827.47;6114482;23;20523;-92
2022/11/29 13:30:01;;;;;;;14.07;3.43;;;;;;;19.25;nan;101834.72;6115454;23;20799;-93
2022/11/29 13:32:35;;;;;;;15.43;3.23;;;;;;;19.19;nan;101835.63;6112751;23;20779;-93
2022/11/29 13:35:07;;;;;;;11.57;3.20;;;;;;;19.03;nan;101821.47;6137807;23;20415;-93
2022/11/29 13:37:44;;;;;;;18.97;3.83;;;;;;;19.00;nan;101836.63;6113769;23;20416;-93
2022/11/29 13:40:18;;;;;;;14.57;3.97;;;;;;;19.01;nan;101830.00;6140570;23;20522;-93
2022/11/29 13:42:58;;;;;;;13.13;3.47;;;;;;;19.02;nan;101826.16;6138096;23;20416;-92
2022/11/29 13:45:29;;;;;;;13.97;3.63;;;;;;;19.01;nan;101807.84;6161638;23;20435;-93
2022/11/29 13:48:00;;;;;;;14.80;3.27;;;;;;;18.92;nan;101787.00;6137538;23;20412;-93
2022/11/29 13:50:35;;;;;;;15.40;4.37;;;;;;;18.88;nan;101794.91;6115216;23;20415;-92
2022/11/29 13:53:05;;;;;;;12.67;3.20;;;;;;;18.77;nan;101792.84;6138510;23;20893;-93
2022/11/29 13:55:33;;;;;;;14.50;3.80;;;;;;;18.53;nan;101776.97;6113198;23;20423;-93
2022/11/29 13:58:06;;;;;;;18.30;3.60;;;;;;;18.37;nan;101758.97;6113708;23;20411;-93
2022/11/29 14:00:43;;;;;;;17.13;4.10;;;;;;;18.46;nan;101774.25;6119768;23;20415;-93
2022/11/29 14:03:24;;;;;;;20.27;4.07;;;;;;;18.52;nan;101773.34;6161933;23;21020;-92
2022/11/29 14:06:11;;;;;;;18.23;4.40;;;;;;;18.61;nan;101777.63;6161373;23;20451;-93
2022/11/29 14:08:52;;;;;;;13.30;3.50;;;;;;;18.69;nan;101759.03;6140809;23;20490;-93
2022/11/29 14:20:00;;;;;;;8.87;3.03;;;;;;;19.06;nan;101747.03;6187505;23;20491;-93
2022/11/29 14:22:29;;;;;;;13.60;4.17;;;;;;;19.05;nan;101745.31;6161089;23;20937;-93
2022/11/29 14:24:59;;;;;;;15.83;2.90;;;;;;;18.93;nan;101733.28;6112938;23;20444;-93
2022/11/29 14:27:26;;;;;;;12.93;3.50;;;;;;;18.92;nan;101750.97;6113219;23;20483;-93
2022/11/29 14:29:58;;;;;;;14.13;3.47;;;;;;;18.85;nan;101728.03;6187656;23;20506;-93
2022/11/29 14:32:55;;;;;;;14.43;4.70;;;;;;;18.92;nan;101737.97;6113123;23;20748;-93
2022/11/29 14:35:30;;;;;;;13.17;4.00;;;;;;;18.90;nan;101733.72;6161472;23;20420;-93
2022/11/29 14:38:34;;;;;;;11.70;3.43;;;;;;;19.00;nan;101727.72;6137477;23;20503;-93
2022/11/29 14:41:22;;;;;;;12.73;3.50;;;;;;;18.95;nan;101722.84;6161551;23;20407;-93
2022/11/29 14:43:50;;;;;;;16.10;3.20;;;;;;;18.85;nan;101709.50;6142272;23;20423;-93
2022/11/29 14:46:18;;;;;;;13.90;3.37;;;;;;;18.91;nan;101718.81;6113102;23;20444;-93
2022/11/29 14:48:55;;;;;;;14.60;3.57;;;;;;;18.88;nan;101710.94;6073437;23;20486;-93
2022/11/29 14:51:24;;;;;;;19.07;3.57;;;;;;;18.86;nan;101704.78;6072639;23;20421;-93
2022/11/29 14:54:18;;;;;;;12.97;3.63;;;;;;;18.69;nan;101714.72;6048839;23;20415;-94
2022/11/29 14:56:46;;;;;;;16.33;3.90;;;;;;;18.57;nan;101689.63;6048792;23;20426;-92
2022/11/29 14:59:44;;;;;;;14.50;4.03;;;;;;;18.60;nan;101709.47;6050022;23;20406;-93
2022/11/29 15:02:45;;;;;;;17.07;5.13;;;;;;;18.35;nan;101694.66;6096252;23;20426;-93
2022/11/29 15:05:19;;;;;;;12.87;4.90;;;;;;;18.36;nan;101696.38;6034735;23;20449;-93
2022/11/29 15:11:36;;;;;;;13.27;3.87;;;;;;;17.87;nan;101688.75;6096416;23;20779;-93
2022/11/29 15:14:47;;;;;;;20.00;4.57;;;;;;;17.72;nan;101677.09;6115980;23;20415;-93
2022/11/29 15:17:37;;;;;;;20.43;4.37;;;;;;;17.63;nan;101694.97;6096319;23;20793;-93
2022/11/29 15:20:23;;;;;;;11.83;4.13;;;;;;;17.55;nan;101693.28;6052499;23;20415;-93
2022/11/29 15:22:57;;;;;;;13.93;4.67;;;;;;;17.44;nan;101696.72;6072481;23;20734;-93
2022/11/29 15:25:30;;;;;;;22.83;5.30;;;;;;;17.33;nan;101694.59;6050114;23;20454;-93
2022/11/29 15:28:02;;;;;;;21.83;5.53;;;;;;;17.14;nan;101683.34;6073846;23;20890;-93
2022/11/29 15:34:37;;;;;;;15.27;4.70;;;;;;;17.07;nan;101684.44;6096404;23;20378;-92
2022/11/29 15:37:05;;;;;;;18.10;4.83;;;;;;;16.97;nan;101682.09;6051807;23;20490;-94
2022/11/29 15:40:03;;;;;;;21.00;5.73;;;;;;;16.98;nan;101697.59;6050462;23;20489;-94
2022/11/29 15:42:49;;;;;;;27.37;6.93;;;;;;;16.95;nan;101697.16;6051472;23;20418;-93
2022/11/29 15:45:23;;;;;;;21.70;4.60;;;;;;;16.75;nan;101680.59;6050381;23;20442;-93
2022/11/29 15:47:51;;;;;;;17.10;4.30;;;;;;;16.64;nan;101684.84;6050801;23;20917;-93
2022/11/29 15:50:24;;;;;;;19.10;4.60;;;;;;;16.63;nan;101693.31;6049870;23;20421;-94
2022/11/29 15:52:54;;;;;;;21.93;5.37;;;;;;;16.48;nan;101686.06;6050860;23;20481;-93
2022/11/29 15:55:21;;;;;;;29.17;5.57;;;;;;;16.49;nan;101692.44;6109607;23;20434;-94
2022/11/29 15:57:50;;;;;;;20.57;5.10;;;;;;;16.50;nan;101705.19;6114251;23;20515;-94
2022/11/29 16:03:59;;;;;;;18.10;4.50;;;;;;;16.45;nan;101704.97;6188603;23;20423;-92
2022/11/29 16:06:28;;;;;;;12.67;3.97;;;;;;;16.50;nan;101716.22;6114113;23;20938;-92
2022/11/29 16:12:53;;;;;;;24.70;4.80;;;;;;;16.24;nan;101689.41;6188262;23;20765;-94
2022/11/29 16:19:24;;;;;;;19.47;4.30;;;;;;;16.03;nan;101715.22;6188243;23;20375;-92
2022/11/29 16:22:11;;;;;;;20.60;3.73;;;;;;;15.89;nan;101708.81;6114466;23;20475;-92
2022/11/29 16:24:59;;;;;;;21.40;4.17;;;;;;;15.74;nan;101710.88;6139406;23;20467;-92
2022/11/29 16:27:30;;;;;;;16.03;3.30;;;;;;;15.63;nan;101697.63;6142175;23;20496;-92
2022/11/29 16:29:59;;;;;;;16.90;3.90;;;;;;;15.55;nan;101711.56;6138634;23;20408;-93
2022/11/29 16:32:40;;;;;;;15.40;3.30;;;;;;;15.52;nan;101717.47;6114484;23;20408;-93
2022/11/29 16:35:13;;;;;;;11.60;3.13;;;;;;;15.42;nan;101726.09;6116580;23;20427;-93
2022/11/29 16:37:42;;;;;;;22.77;4.27;;;;;;;15.28;nan;101732.56;6114375;23;20504;-92
2022/11/29 16:40:24;;;;;;;10.23;2.37;;;;;;;15.18;nan;101727.44;6113456;23;20412;-93
2022/11/29 16:43:22;;;;;;;13.03;2.57;;;;;;;15.13;nan;101729.06;6113804;23;20404;-93
2022/11/29 16:46:20;;;;;;;15.37;2.07;;;;;;;15.05;nan;101731.94;6137801;23;20467;-93
2022/11/29 16:48:48;;;;;;;17.33;3.70;;;;;;;14.93;nan;101728.91;6161555;23;20407;-92
2022/11/29 16:51:31;;;;;;;9.37;2.40;;;;;;;14.81;nan;101736.00;6113460;23;20400;-93
2022/11/29 16:54:31;;;;;;;9.43;3.17;;;;;;;14.63;nan;101719.06;6114099;23;20419;-93
2022/11/29 16:57:04;;;;;;;16.00;2.67;;;;;;;14.65;nan;101730.72;6116285;23;20505;-92
2022/11/29 16:59:34;;;;;;;10.57;2.73;;;;;;;14.43;nan;101703.22;6113361;23;20448;-92
2022/11/29 17:06:21;;;;;;;12.30;2.43;;;;;;;14.39;nan;101723.91;6187665;23;20957;-92
2022/11/29 17:08:50;;;;;;;9.43;2.20;;;;;;;14.32;nan;101731.22;6136948;23;20886;-93
2022/11/29 17:11:17;;;;;;;8.33;2.43;;;;;;;14.22;nan;101714.19;6113192;23;20495;-93
2022/11/29 17:13:45;;;;;;;8.90;2.37;;;;;;;14.15;nan;101707.75;6112476;23;20746;-93
2022/11/29 17:16:20;;;;;;;14.63;3.10;;;;;;;14.06;nan;101712.50;6115713;23;20416;-94
2022/11/29 17:19:35;;;;;;;8.30;2.60;;;;;;;14.13;nan;101715.34;6137170;23;20620;-94
2022/11/29 17:22:39;;;;;;;13.53;2.70;;;;;;;14.01;nan;101723.25;6161660;23;20808;-94
2022/11/29 17:25:07;;;;;;;16.33;2.50;;;;;;;13.90;nan;101720.13;6160856;23;20427;-94
2022/11/29 17:31:28;;;;;;;13.87;3.17;;;;;;;13.73;nan;101724.97;6187237;23;20439;-96
2022/11/29 17:33:59;;;;;;;17.07;4.07;;;;;;;13.71;nan;101727.91;6113190;23;20487;-96
2022/11/29 17:36:43;;;;;;;12.77;2.97;;;;;;;13.58;nan;101726.88;6112641;23;20416;-96
2022/11/29 17:39:18;;;;;;;11.77;2.50;;;;;;;13.59;nan;101739.56;6160872;23;20475;-96